Time;durP1;ratioP1;P1;durP2;ratioP2;P2;SDS_P1;SDS_P2;PMS_P1;PMS_P2;Temp;Humidity;BMP_temperature;BMP_pressure;BME280_temperature;BME280_humidity;BME280_pressure;Samples;Min_cycle;Max_cycle;Signal;HPM_P1;HPM_P2
2024/03/11 00:00:19;;;;;;;44.05;27.35;;;;;;;12.56;52.80;99685.34;4905407;28;114283;-67
2024/03/11 00:02:49;;;;;;;44.13;27.35;;;;;;;12.56;52.63;99695.16;4905166;28;114873;-67
2024/03/11 00:05:16;;;;;;;44.60;27.60;;;;;;;12.56;52.80;99695.16;4908563;28;123687;-67
2024/03/11 00:07:46;;;;;;;40.03;26.52;;;;;;;12.55;52.79;99699.63;4909103;28;123967;-67
2024/03/11 00:10:14;;;;;;;44.03;27.25;;;;;;;12.54;52.81;99691.75;4907199;28;114344;-67
2024/03/11 00:12:49;;;;;;;41.25;28.08;;;;;;;12.54;52.88;99681.97;4919051;28;114741;-67
2024/03/11 00:15:20;;;;;;;43.15;27.95;;;;;;;12.53;52.83;99685.59;4905073;28;124151;-67
2024/03/11 00:17:52;;;;;;;42.55;27.10;;;;;;;12.52;52.74;99683.88;4923282;28;122813;-67
2024/03/11 00:20:20;;;;;;;47.75;28.90;;;;;;;12.52;52.79;99686.53;4918992;28;113398;-67
2024/03/11 00:22:48;;;;;;;45.70;28.52;;;;;;;12.52;52.79;99689.19;4907516;28;114322;-67
2024/03/11 00:25:16;;;;;;;42.13;26.83;;;;;;;12.52;52.74;99686.53;4910110;28;124050;-67
2024/03/11 00:27:44;;;;;;;42.45;27.48;;;;;;;12.50;52.72;99685.81;4907559;28;124202;-67
2024/03/11 00:30:12;;;;;;;43.60;27.52;;;;;;;12.48;52.87;99687.72;4909426;28;114122;-67
2024/03/11 00:32:49;;;;;;;45.05;27.95;;;;;;;12.46;52.84;99684.34;4908978;28;114159;-67
2024/03/11 00:35:16;;;;;;;42.15;26.75;;;;;;;12.43;52.94;99684.53;4908890;28;124213;-67
2024/03/11 00:37:48;;;;;;;43.05;27.90;;;;;;;12.43;52.92;99685.41;4910718;28;124167;-66
2024/03/11 00:40:15;;;;;;;42.97;27.63;;;;;;;12.43;53.00;99688.06;4905241;28;115341;-66
2024/03/11 00:42:43;;;;;;;45.22;27.48;;;;;;;12.43;52.82;99684.53;4908010;28;115134;-67
2024/03/11 00:45:11;;;;;;;45.17;28.02;;;;;;;12.43;53.00;99689.84;4909015;28;124161;-67
2024/03/11 00:47:40;;;;;;;43.20;27.42;;;;;;;12.43;53.21;99700.47;4909083;28;123775;-67
2024/03/11 00:50:11;;;;;;;44.08;26.98;;;;;;;12.40;53.11;99706.03;4909237;28;114367;-67
2024/03/11 00:52:39;;;;;;;41.25;27.20;;;;;;;12.38;53.23;99702.63;4912017;28;114312;-67
2024/03/11 00:55:08;;;;;;;44.33;28.98;;;;;;;12.35;53.22;99703.69;4910353;28;123820;-66
2024/03/11 00:57:37;;;;;;;44.08;27.92;;;;;;;12.35;53.32;99702.84;4908769;28;124733;-67
2024/03/11 01:00:08;;;;;;;42.20;27.25;;;;;;;12.34;53.32;99706.44;4925342;28;113586;-66
2024/03/11 01:02:37;;;;;;;43.05;27.40;;;;;;;12.35;53.37;99718.78;4910913;28;114585;-67
2024/03/11 01:05:05;;;;;;;44.45;28.73;;;;;;;12.33;53.52;99710.06;4905008;28;125532;-67
2024/03/11 01:07:35;;;;;;;43.08;27.02;;;;;;;12.33;53.53;99710.06;4910297;28;124905;-66
2024/03/11 01:10:16;;;;;;;44.08;27.45;;;;;;;12.31;53.47;99701.38;4908669;28;114481;-67
2024/03/11 01:12:45;;;;;;;44.55;28.23;;;;;;;12.30;53.58;99699.66;4906794;28;113913;-66
2024/03/11 01:15:12;;;;;;;45.88;27.80;;;;;;;12.30;53.68;99704.97;4924849;28;124474;-66
2024/03/11 01:17:40;;;;;;;45.15;28.27;;;;;;;12.31;53.67;99701.38;4908394;28;123789;-67
2024/03/11 01:20:10;;;;;;;45.72;28.38;;;;;;;12.31;53.71;99690.75;4907821;28;112584;-67
2024/03/11 01:22:42;;;;;;;44.72;27.45;;;;;;;12.32;53.85;99698.59;4922278;28;114059;-67
2024/03/11 01:25:10;;;;;;;46.33;27.85;;;;;;;12.33;53.89;99694.13;4910018;28;124132;-67
2024/03/11 01:27:40;;;;;;;46.97;29.60;;;;;;;12.33;53.93;99699.44;4910603;28;123697;-67
2024/03/11 01:30:09;;;;;;;44.25;28.27;;;;;;;12.32;53.96;99703.03;4907947;28;115314;-67
2024/03/11 01:32:39;;;;;;;44.63;28.13;;;;;;;12.34;54.04;99711.75;4905870;28;115413;-67
2024/03/11 01:35:11;;;;;;;45.60;28.45;;;;;;;12.33;54.03;99704.75;4912423;28;123889;-67
2024/03/11 01:37:41;;;;;;;45.75;28.27;;;;;;;12.34;54.36;99701.13;4906999;28;123696;-67
2024/03/11 01:40:10;;;;;;;48.15;28.42;;;;;;;12.36;54.13;99715.19;4907245;28;114370;-67
2024/03/11 01:42:38;;;;;;;43.05;28.55;;;;;;;12.34;54.08;99719.72;4907250;28;113950;-67
2024/03/11 01:45:07;;;;;;;45.33;28.98;;;;;;;12.34;54.20;99711.75;4900937;28;123940;-67
2024/03/11 01:47:37;;;;;;;46.60;29.23;;;;;;;12.35;54.23;99716.13;4908863;28;122925;-67
2024/03/11 01:50:07;;;;;;;49.25;30.30;;;;;;;12.36;54.08;99720.47;4906165;28;114707;-67
2024/03/11 01:52:48;;;;;;;47.88;29.23;;;;;;;12.35;54.17;99727.56;4906734;28;114113;-68
2024/03/11 01:55:17;;;;;;;46.10;28.35;;;;;;;12.36;54.15;99725.78;4905337;28;124047;-67
2024/03/11 01:57:50;;;;;;;44.85;28.08;;;;;;;12.36;54.26;99731.09;4909829;28;123163;-68
2024/03/11 02:00:21;;;;;;;49.00;29.45;;;;;;;12.36;54.18;99725.78;4907264;28;114594;-67
2024/03/11 02:02:53;;;;;;;45.10;29.33;;;;;;;12.35;54.31;99724.09;4919653;28;113228;-67
2024/03/11 02:05:24;;;;;;;46.20;28.80;;;;;;;12.33;54.20;99726.84;4905044;28;124180;-67
2024/03/11 02:08:00;;;;;;;45.35;28.63;;;;;;;12.34;54.35;99722.38;4908822;28;124436;-67
2024/03/11 02:10:29;;;;;;;46.40;28.88;;;;;;;12.34;54.37;99723.25;4920212;28;114205;-67
2024/03/11 02:12:58;;;;;;;45.83;28.55;;;;;;;12.36;54.49;99731.09;4904478;28;114334;-67
2024/03/11 02:15:27;;;;;;;44.33;28.55;;;;;;;12.35;54.50;99729.41;4907331;28;124005;-67
2024/03/11 02:17:54;;;;;;;46.22;28.42;;;;;;;12.34;54.68;99727.69;4902331;28;125053;-67
2024/03/11 02:20:22;;;;;;;45.42;28.23;;;;;;;12.33;54.65;99731.31;4909068;28;115311;-68
2024/03/11 02:22:50;;;;;;;45.33;28.33;;;;;;;12.32;54.66;99719.84;4905247;28;115622;-68
2024/03/11 02:25:26;;;;;;;42.78;28.20;;;;;;;12.31;54.72;99727.91;4906497;28;123373;-68
2024/03/11 02:27:56;;;;;;;47.13;29.45;;;;;;;12.32;54.80;99724.28;4908275;28;126555;-68
2024/03/11 02:30:24;;;;;;;46.22;28.98;;;;;;;12.31;54.82;99723.44;4909300;28;114340;-68
2024/03/11 02:32:51;;;;;;;45.45;27.67;;;;;;;12.32;54.77;99729.59;4900761;28;115127;-69
2024/03/11 02:35:19;;;;;;;34.85;17.10;;;;;;;12.30;54.64;99731.50;4907458;28;124083;-69
2024/03/11 02:37:46;;;;;;;46.15;28.95;;;;;;;12.31;54.80;99725.25;4904183;28;122736;-68
2024/03/11 02:40:18;;;;;;;48.28;28.98;;;;;;;12.31;54.90;99727.91;4908867;28;114538;-68
2024/03/11 02:42:46;;;;;;;45.42;27.85;;;;;;;12.30;54.89;99723.53;4901957;28;114105;-68
2024/03/11 02:45:15;;;;;;;47.17;27.98;;;;;;;12.28;54.94;99723.66;4905872;28;124023;-69
2024/03/11 02:47:42;;;;;;;44.40;27.77;;;;;;;12.26;54.90;99721.13;4905701;28;124031;-69
2024/03/11 02:50:11;;;;;;;46.65;28.38;;;;;;;12.25;55.06;99727.38;4902724;28;115219;-68
2024/03/11 02:52:39;;;;;;;46.47;27.90;;;;;;;12.24;55.13;99723.03;4901291;28;114014;-68
2024/03/11 02:55:13;;;;;;;50.42;28.38;;;;;;;12.23;55.09;99731.94;4903638;28;123870;-68
2024/03/11 02:57:48;;;;;;;46.70;28.38;;;;;;;12.23;55.12;99731.94;4916766;28;122833;-68
2024/03/11 03:00:16;;;;;;;47.88;28.40;;;;;;;12.21;55.12;99728.56;4906308;28;114165;-64
2024/03/11 03:02:49;;;;;;;46.22;28.52;;;;;;;12.20;55.17;99726.84;4907583;28;114139;-64
2024/03/11 03:05:17;;;;;;;46.05;27.92;;;;;;;12.19;55.17;99725.16;4903145;28;124065;-64
2024/03/11 03:07:46;;;;;;;48.40;28.95;;;;;;;12.17;55.44;99735.03;4909163;28;123825;-63
2024/03/11 03:10:13;;;;;;;47.38;28.40;;;;;;;12.17;55.63;99726.25;4905374;28;115445;-63
2024/03/11 03:12:41;;;;;;;46.75;28.42;;;;;;;12.16;55.56;99730.69;4903967;28;115309;-64
2024/03/11 03:15:08;;;;;;;46.58;28.02;;;;;;;12.15;55.77;99718.38;4907759;28;123986;-63
2024/03/11 03:17:38;;;;;;;44.05;26.05;;;;;;;12.14;55.83;99724.63;4907075;28;123029;-63
2024/03/11 03:20:09;;;;;;;46.47;28.05;;;;;;;12.13;55.89;99730.91;4921628;28;113732;-63
2024/03/11 03:22:38;;;;;;;46.05;27.42;;;;;;;12.13;55.77;99740.66;4904020;28;114166;-64
2024/03/11 03:25:06;;;;;;;49.03;28.02;;;;;;;12.12;55.76;99729.19;4923746;28;124814;-64
2024/03/11 03:27:33;;;;;;;50.75;29.23;;;;;;;12.11;55.99;99727.50;4905974;28;123864;-64
2024/03/11 03:30:01;;;;;;;49.42;28.77;;;;;;;12.12;55.97;99729.19;4906913;28;113090;-64
2024/03/11 03:32:28;;;;;;;44.97;28.33;;;;;;;12.12;55.99;99734.50;4916439;28;113934;-64
2024/03/11 03:34:57;;;;;;;44.22;26.90;;;;;;;12.11;56.11;99722.19;4908657;28;124627;-64
2024/03/11 03:37:24;;;;;;;46.65;27.67;;;;;;;12.12;56.24;99729.19;4905376;28;124015;-64
2024/03/11 03:39:51;;;;;;;47.55;28.40;;;;;;;12.11;56.17;99722.19;4909566;28;113458;-64
2024/03/11 03:42:22;;;;;;;46.08;27.52;;;;;;;12.12;56.16;99718.56;4912683;28;113068;-64
2024/03/11 03:44:49;;;;;;;47.75;27.88;;;;;;;12.13;56.36;99725.59;4905155;28;124744;-64
2024/03/11 03:47:16;;;;;;;46.28;28.42;;;;;;;12.12;56.29;99721.22;4905137;28;123939;-64
2024/03/11 03:49:47;;;;;;;45.25;28.10;;;;;;;12.11;56.49;99716.03;4909474;28;114143;-64
2024/03/11 03:52:14;;;;;;;48.03;29.08;;;;;;;12.11;56.58;99722.19;4913568;28;114330;-64
2024/03/11 03:54:41;;;;;;;47.88;28.75;;;;;;;12.11;56.44;99722.19;4909206;28;124324;-64
2024/03/11 03:57:08;;;;;;;53.60;29.55;;;;;;;12.11;56.73;99721.34;4912561;28;123721;-64
2024/03/11 03:59:37;;;;;;;51.90;30.45;;;;;;;12.11;56.58;99726.63;4914475;28;114404;-64
2024/03/11 04:02:12;;;;;;;51.40;30.25;;;;;;;12.10;56.68;99722.31;4911612;28;115012;-64
2024/03/11 04:04:40;;;;;;;46.75;28.15;;;;;;;12.10;56.63;99731.09;4913336;28;124060;-66
2024/03/11 04:07:09;;;;;;;50.40;29.85;;;;;;;12.07;56.84;99721.56;4913521;28;124404;-64
2024/03/11 04:09:38;;;;;;;47.17;28.15;;;;;;;12.06;56.85;99724.31;4906327;28;114851;-63
2024/03/11 04:12:06;;;;;;;51.28;30.10;;;;;;;12.04;57.22;99720.94;4908780;28;114388;-64
2024/03/11 04:14:33;;;;;;;52.17;30.05;;;;;;;12.03;57.08;99727.19;4909537;28;123749;-64
2024/03/11 04:17:01;;;;;;;49.35;29.77;;;;;;;12.01;57.23;99729.09;4907819;28;123952;-64
2024/03/11 04:19:28;;;;;;;49.03;28.85;;;;;;;12.02;57.10;99728.16;4924943;28;113333;-64
2024/03/11 04:21:56;;;;;;;53.58;30.13;;;;;;;12.00;57.18;99730.06;4905504;28;113822;-64
2024/03/11 04:24:25;;;;;;;51.03;30.05;;;;;;;12.01;57.36;99723.78;4910106;28;124211;-64
2024/03/11 04:26:53;;;;;;;51.78;29.27;;;;;;;12.00;57.31;99730.06;4907767;28;123859;-64
2024/03/11 04:29:20;;;;;;;52.53;30.73;;;;;;;11.98;57.43;99726.63;4911185;28;115192;-64
2024/03/11 04:31:48;;;;;;;52.75;30.50;;;;;;;11.96;57.49;99731.19;4905352;28;115416;-64
2024/03/11 04:34:15;;;;;;;52.67;31.33;;;;;;;11.94;57.40;99730.47;4908403;28;123792;-64
2024/03/11 04:36:42;;;;;;;54.83;31.58;;;;;;;11.95;57.59;99734.81;4910325;28;123738;-64
2024/03/11 04:39:14;;;;;;;50.53;30.35;;;;;;;11.95;57.68;99734.81;4904394;28;114542;-64
2024/03/11 04:41:42;;;;;;;53.30;30.50;;;;;;;11.95;57.80;99732.16;4904475;28;114452;-64
2024/03/11 04:44:11;;;;;;;51.58;29.88;;;;;;;11.96;57.82;99728.53;4907574;28;123924;-64
2024/03/11 04:46:39;;;;;;;55.03;30.35;;;;;;;11.96;57.68;99733.84;4906624;28;122785;-64
2024/03/11 04:49:06;;;;;;;52.85;31.35;;;;;;;11.96;57.78;99744.47;4904403;28;115112;-64
2024/03/11 04:51:33;;;;;;;59.83;31.63;;;;;;;11.94;57.55;99743.72;4908318;28;115353;-63
2024/03/11 04:54:01;;;;;;;52.03;30.80;;;;;;;11.95;57.83;99748.94;4906521;28;124543;-64
2024/03/11 04:56:30;;;;;;;54.35;30.88;;;;;;;11.96;57.87;99755.94;4921409;28;123247;-64
2024/03/11 04:58:59;;;;;;;51.03;30.02;;;;;;;11.97;58.01;99756.78;4923846;28;113521;-63
2024/03/11 05:01:27;;;;;;;50.88;31.65;;;;;;;11.97;57.93;99759.44;4895484;28;113130;-64
2024/03/11 05:03:55;;;;;;;53.33;30.98;;;;;;;11.97;57.97;99759.44;4911185;28;124031;-64
2024/03/11 05:06:23;;;;;;;55.55;32.00;;;;;;;11.97;57.73;99759.44;4921895;28;124484;-64
2024/03/11 05:08:51;;;;;;;52.20;29.73;;;;;;;11.98;57.89;99753.16;4906239;28;114623;-64
2024/03/11 05:11:19;;;;;;;52.53;29.80;;;;;;;11.98;57.94;99763.78;4907141;28;114006;-64
2024/03/11 05:13:49;;;;;;;53.05;29.38;;;;;;;11.98;57.96;99769.09;4916496;28;123317;-64
2024/03/11 05:16:18;;;;;;;52.72;30.17;;;;;;;11.99;57.83;99770.81;4909509;28;123092;-64
2024/03/11 05:18:45;;;;;;;51.88;30.05;;;;;;;11.99;57.95;99770.81;4907249;28;113193;-64
2024/03/11 05:21:13;;;;;;;54.55;30.30;;;;;;;12.00;57.97;99767.22;4907628;28;112631;-64
2024/03/11 05:23:41;;;;;;;52.65;28.50;;;;;;;11.98;57.88;99774.41;4904969;28;124292;-64
2024/03/11 05:26:09;;;;;;;50.47;28.27;;;;;;;11.97;57.91;99783.34;4904828;28;123533;-64
2024/03/11 05:28:37;;;;;;;48.88;28.02;;;;;;;11.95;58.11;99779.94;4907229;28;114478;-65
2024/03/11 05:31:07;;;;;;;47.45;28.10;;;;;;;11.95;58.09;99785.25;4907800;28;114446;-64
2024/03/11 05:33:35;;;;;;;52.03;29.92;;;;;;;11.95;57.96;99779.94;4902753;28;124155;-64
2024/03/11 05:36:03;;;;;;;50.88;28.10;;;;;;;11.95;58.05;99779.94;4906576;28;123005;-65
2024/03/11 05:38:31;;;;;;;48.42;28.00;;;;;;;11.95;58.11;99785.25;4910815;28;114498;-64
2024/03/11 05:40:59;;;;;;;49.10;26.73;;;;;;;11.95;58.08;99785.25;4908736;28;114528;-63
2024/03/11 05:43:26;;;;;;;43.90;26.10;;;;;;;11.94;58.10;99794.13;4926298;28;123068;-64
2024/03/11 05:45:53;;;;;;;50.10;28.33;;;;;;;11.94;58.21;99794.13;4907394;28;124265;-64
2024/03/11 05:48:21;;;;;;;50.22;29.02;;;;;;;11.94;58.08;99799.44;4910478;28;114229;-64
2024/03/11 05:50:51;;;;;;;48.42;27.05;;;;;;;11.92;58.14;99801.34;4907508;28;114204;-64
2024/03/11 05:53:21;;;;;;;50.22;27.60;;;;;;;11.91;58.32;99804.97;4907901;28;124162;-64
2024/03/11 05:55:48;;;;;;;48.13;27.58;;;;;;;11.93;58.43;99808.38;4911411;28;100642;-64
2024/03/11 05:58:17;;;;;;;54.42;29.23;;;;;;;11.94;58.22;99815.38;4909495;28;114345;-64
2024/03/11 06:00:46;;;;;;;51.90;28.85;;;;;;;11.96;58.34;99813.47;4907481;28;114532;-64
2024/03/11 06:03:13;;;;;;;51.33;28.40;;;;;;;11.96;58.48;99813.47;4908040;28;124295;-64
2024/03/11 06:05:43;;;;;;;39.40;17.25;;;;;;;11.95;58.20;99827.69;4923238;28;123360;-64
2024/03/11 06:08:13;;;;;;;36.88;17.58;;;;;;;11.95;57.98;99827.69;4905619;28;114495;-64
2024/03/11 06:10:41;;;;;;;38.08;16.58;;;;;;;11.95;57.94;99838.31;4902412;28;115452;-64
2024/03/11 06:13:08;;;;;;;38.80;16.58;;;;;;;11.97;57.92;99831.09;4903966;28;123736;-64
2024/03/11 06:15:35;;;;;;;37.33;16.75;;;;;;;11.97;57.79;99831.09;4903273;28;124903;-64
2024/03/11 06:18:04;;;;;;;34.45;16.23;;;;;;;11.97;57.78;99829.28;4906133;28;114026;-64
2024/03/11 06:20:31;;;;;;;33.53;15.52;;;;;;;11.98;57.76;99832.78;4909183;28;112922;-64
2024/03/11 06:22:59;;;;;;;38.30;15.90;;;;;;;12.00;57.63;99837.06;4908123;28;124002;-68
2024/03/11 06:25:26;;;;;;;37.97;16.80;;;;;;;12.02;57.47;99834.28;4909756;28;123976;-64
2024/03/11 06:27:54;;;;;;;38.47;16.02;;;;;;;12.04;57.71;99837.69;4907055;28;115296;-65
2024/03/11 06:30:22;;;;;;;37.05;16.13;;;;;;;12.05;57.48;99844.69;4906817;28;115282;-64
2024/03/11 06:32:50;;;;;;;34.33;15.65;;;;;;;12.06;57.63;99846.41;4907351;28;123843;-65
2024/03/11 06:35:18;;;;;;;32.53;15.02;;;;;;;12.06;57.51;99846.41;4904477;28;123764;-64
2024/03/11 06:37:46;;;;;;;32.65;15.15;;;;;;;12.07;57.64;99858.69;4908613;28;114975;-64
2024/03/11 06:40:17;;;;;;;34.92;15.25;;;;;;;12.08;57.56;99860.41;4907983;28;114051;-64
2024/03/11 06:42:45;;;;;;;33.15;14.52;;;;;;;12.08;57.35;99855.09;4905346;28;127707;-64
2024/03/11 06:45:13;;;;;;;33.25;15.43;;;;;;;12.10;57.46;99866.47;4902638;28;123578;-64
2024/03/11 06:47:41;;;;;;;34.33;15.30;;;;;;;12.11;57.29;99865.53;4908932;28;114786;-64
2024/03/11 06:50:09;;;;;;;34.13;14.70;;;;;;;12.11;57.38;99864.66;4903084;28;113888;-64
2024/03/11 06:52:36;;;;;;;29.15;14.02;;;;;;;12.11;57.29;99865.53;4906245;28;123121;-64
2024/03/11 06:55:10;;;;;;;31.45;14.60;;;;;;;12.10;57.42;99858.50;4925624;28;123810;-64
2024/03/11 06:57:38;;;;;;;36.60;14.73;;;;;;;12.11;57.16;99860.22;4898738;28;114821;-64
2024/03/11 07:00:17;;;;;;;29.77;14.73;;;;;;;12.11;57.41;99857.56;4906148;28;114381;-64
2024/03/11 07:02:46;;;;;;;32.92;15.15;;;;;;;12.11;57.31;99862.00;4907090;28;124704;-64
2024/03/11 07:05:14;;;;;;;33.47;15.10;;;;;;;12.09;57.22;99856.78;4904892;28;123976;-67
2024/03/11 07:07:42;;;;;;;29.63;14.48;;;;;;;12.10;57.41;99861.16;4917952;28;113944;-64
2024/03/11 07:10:11;;;;;;;30.45;13.63;;;;;;;12.10;57.17;99861.16;4903677;28;114118;-65
2024/03/11 07:12:42;;;;;;;31.00;14.57;;;;;;;12.10;57.17;99863.81;4906738;28;124037;-64
2024/03/11 07:15:10;;;;;;;31.40;14.38;;;;;;;12.06;57.33;99862.31;4906082;28;124343;-65
2024/03/11 07:17:38;;;;;;;33.53;14.23;;;;;;;12.05;57.09;99865.91;4909372;28;114414;-65
2024/03/11 07:20:11;;;;;;;27.00;13.40;;;;;;;12.06;57.29;99867.63;4900126;28;115131;-65
2024/03/11 07:22:40;;;;;;;31.85;14.85;;;;;;;12.02;57.25;99866.16;4903432;28;124077;-65
2024/03/11 07:25:10;;;;;;;28.10;13.23;;;;;;;12.00;57.20;99862.75;4923025;28;123544;-65
2024/03/11 07:27:39;;;;;;;31.13;13.48;;;;;;;11.99;57.28;99859.22;4919658;28;113400;-64
2024/03/11 07:30:07;;;;;;;32.22;14.73;;;;;;;12.00;57.21;99857.44;4911538;28;114006;-64
2024/03/11 07:32:34;;;;;;;30.50;14.07;;;;;;;12.00;57.17;99857.44;4904959;28;124755;-65
2024/03/11 07:35:05;;;;;;;32.40;13.57;;;;;;;11.99;57.27;99866.34;4907685;28;124370;-64
2024/03/11 07:37:36;;;;;;;28.40;13.00;;;;;;;11.99;57.50;99861.03;4905640;28;114110;-64
2024/03/11 07:40:11;;;;;;;29.30;12.80;;;;;;;11.97;57.43;99865.59;4906424;28;113338;-64
2024/03/11 07:42:39;;;;;;;;;;;;;;;11.95;57.24;99864.84;4918256;28;124065;-64
2024/03/11 07:45:10;;;;;;;22.55;10.52;;;;;;;11.96;57.30;99855.91;4907268;28;123848;-64
2024/03/11 07:47:42;;;;;;;21.30;10.32;;;;;;;11.95;57.15;99854.22;4916618;28;114554;-64
2024/03/11 07:50:11;;;;;;;24.45;11.38;;;;;;;11.95;56.99;99860.38;4907835;28;113931;-64
2024/03/11 07:52:39;;;;;;;23.58;11.57;;;;;;;11.94;57.37;99860.47;4904337;28;123822;-64
2024/03/11 07:55:10;;;;;;;22.63;11.65;;;;;;;11.92;57.63;99865.03;4921742;28;124758;-64
2024/03/11 07:57:38;;;;;;;23.15;12.00;;;;;;;11.92;57.31;99865.88;4905818;28;114266;-64
2024/03/11 08:00:08;;;;;;;28.92;13.07;;;;;;;11.92;57.37;99865.03;4924278;28;114479;-64
2024/03/11 08:02:37;;;;;;;24.90;12.50;;;;;;;11.92;57.38;99865.03;4901076;28;124146;-64
2024/03/11 08:05:13;;;;;;;26.85;12.20;;;;;;;11.92;57.39;99865.03;4907441;28;123850;-64
2024/03/11 08:07:44;;;;;;;23.58;12.27;;;;;;;11.93;57.49;99861.44;4920229;28;115606;-64
2024/03/11 08:10:12;;;;;;;25.27;13.13;;;;;;;11.92;57.42;99870.34;4917012;28;114919;-64
2024/03/11 08:12:42;;;;;;;27.20;12.70;;;;;;;11.92;57.68;99875.66;4904756;28;124506;-64
2024/03/11 08:15:14;;;;;;;29.42;13.30;;;;;;;11.92;57.52;99871.19;4903823;28;124298;-64
2024/03/11 08:17:43;;;;;;;27.77;13.25;;;;;;;11.93;57.56;99880.03;4908815;28;114279;-64
2024/03/11 08:20:16;;;;;;;26.13;12.95;;;;;;;11.94;57.67;99889.66;4909317;28;114065;-64
2024/03/11 08:22:48;;;;;;;23.33;11.00;;;;;;;11.93;57.54;99893.28;4922866;28;123019;-64
2024/03/11 08:25:18;;;;;;;21.95;10.45;;;;;;;11.94;57.53;99894.97;4906995;28;122852;-63
2024/03/11 08:27:48;;;;;;;23.42;11.25;;;;;;;11.93;57.55;99903.91;4908531;28;113366;-63
2024/03/11 08:30:15;;;;;;;21.85;10.40;;;;;;;11.92;57.71;99891.56;4914783;28;114345;-63
2024/03/11 08:32:43;;;;;;;20.85;10.38;;;;;;;11.91;57.60;99893.38;4908139;28;124069;-64
2024/03/11 08:35:10;;;;;;;22.55;10.80;;;;;;;11.92;57.75;99903.03;4909832;28;124826;-64
2024/03/11 08:37:39;;;;;;;21.20;10.13;;;;;;;11.95;57.59;99904.66;4906211;28;113910;-64
2024/03/11 08:40:08;;;;;;;19.45;9.75;;;;;;;11.96;57.37;99903.69;4909040;28;114271;-63
2024/03/11 08:43:01;;;;;;;20.00;9.98;;;;;;;11.97;57.49;99910.69;4910263;28;124238;-68
2024/03/11 08:45:32;;;;;;;20.95;10.05;;;;;;;11.98;57.50;99912.38;4903595;28;124022;-69
2024/03/11 08:48:00;;;;;;;20.70;9.82;;;;;;;11.99;57.38;99906.16;4929138;28;114082;-69
2024/03/11 08:50:28;;;;;;;20.88;10.48;;;;;;;11.98;57.43;99907.94;4910329;28;114049;-68
2024/03/11 08:53:00;;;;;;;21.13;9.90;;;;;;;11.99;57.53;99914.09;4906119;28;123752;-69
2024/03/11 08:55:28;;;;;;;17.55;9.35;;;;;;;12.01;57.49;99912.19;4911112;28;123975;-69
2024/03/11 08:57:58;;;;;;;22.38;10.13;;;;;;;12.04;57.46;99917.31;4904109;28;115288;-69
2024/03/11 09:00:27;;;;;;;18.20;9.50;;;;;;;12.06;57.35;99920.72;4912741;28;114131;-69
2024/03/11 09:02:55;;;;;;;22.05;10.68;;;;;;;12.08;57.55;99924.13;4907511;28;123619;-69
2024/03/11 09:05:23;;;;;;;21.08;10.30;;;;;;;12.10;57.56;99926.66;4911447;28;124085;-68
2024/03/11 09:07:51;;;;;;;19.95;9.85;;;;;;;12.10;57.32;99932.81;4926971;28;114609;-68
2024/03/11 09:10:20;;;;;;;18.55;9.50;;;;;;;12.11;57.51;99929.22;4901908;28;114308;-69
2024/03/11 09:12:49;;;;;;;18.95;9.77;;;;;;;12.12;57.45;99930.91;4905826;28;124116;-69
2024/03/11 09:15:17;;;;;;;20.00;9.68;;;;;;;12.11;57.45;99923.94;4927874;28;122957;-70
2024/03/11 09:17:49;;;;;;;21.98;9.82;;;;;;;12.11;57.74;99934.53;4924833;28;113234;-69
2024/03/11 09:20:20;;;;;;;23.20;10.20;;;;;;;12.12;57.49;99940.69;4909644;28;114387;-69
2024/03/11 09:22:50;;;;;;;23.42;10.55;;;;;;;12.11;57.58;99939.84;4908852;28;124100;-69
2024/03/11 09:25:22;;;;;;;20.60;9.30;;;;;;;12.13;57.67;99945.91;4897016;28;122763;-69
2024/03/11 09:28:00;;;;;;;18.67;9.10;;;;;;;12.15;57.60;99951.09;4909029;28;114866;-68
2024/03/11 09:30:32;;;;;;;19.45;9.23;;;;;;;12.16;57.59;99947.50;4908704;28;114044;-68
2024/03/11 09:33:01;;;;;;;18.40;8.63;;;;;;;12.16;57.48;99953.66;4905669;28;124003;-69
2024/03/11 09:35:28;;;;;;;16.08;8.45;;;;;;;12.17;57.39;99958.03;4905778;28;124474;-69
2024/03/11 09:37:57;;;;;;;18.67;9.25;;;;;;;12.17;57.70;99960.66;4910168;28;114231;-69
2024/03/11 09:40:28;;;;;;;17.90;8.15;;;;;;;12.18;57.60;99967.66;4910953;28;114088;-69
2024/03/11 09:43:01;;;;;;;14.27;7.88;;;;;;;12.17;57.24;99976.59;4916871;28;124037;-68
2024/03/11 09:45:34;;;;;;;16.27;8.55;;;;;;;12.18;57.56;99972.97;4909201;28;123885;-69
2024/03/11 09:48:04;;;;;;;17.17;8.50;;;;;;;12.20;57.55;99971.06;4907192;28;115210;-69
2024/03/11 09:50:35;;;;;;;17.15;9.00;;;;;;;12.21;57.43;99972.78;4904980;28;114830;-69
2024/03/11 09:53:07;;;;;;;17.90;8.70;;;;;;;12.21;57.60;99988.72;4924360;28;123287;-69
2024/03/11 09:55:36;;;;;;;16.70;8.75;;;;;;;12.19;57.55;99985.31;4905564;28;124560;-69
2024/03/11 09:58:10;;;;;;;16.73;8.52;;;;;;;12.18;57.62;99983.59;4912545;28;115200;-69
2024/03/11 10:01:00;;;;;;;16.55;8.20;;;;;;;12.17;57.34;99987.22;4910661;28;113031;-69
2024/03/11 10:03:27;;;;;;;14.23;7.95;;;;;;;12.17;57.58;99984.56;4924208;28;124056;-69
2024/03/11 10:05:59;;;;;;;15.00;8.00;;;;;;;12.17;57.39;99987.22;4923342;28;122786;-69
2024/03/11 10:08:30;;;;;;;15.30;8.50;;;;;;;12.16;57.56;99990.81;4912605;28;114619;-69
2024/03/11 10:11:15;;;;;;;14.95;8.23;;;;;;;12.16;57.57;99996.13;4908312;28;114265;-69
2024/03/11 10:13:43;;;;;;;18.20;8.30;;;;;;;12.15;57.59;99994.44;4906868;28;124439;-69
2024/03/11 10:16:19;;;;;;;17.98;8.43;;;;;;;12.15;57.58;99994.44;4908866;28;123776;-69
2024/03/11 10:19:14;;;;;;;18.30;8.82;;;;;;;12.16;57.56;100001.44;4908156;28;113686;-69
2024/03/11 10:21:42;;;;;;;15.35;7.93;;;;;;;12.18;57.53;100004.00;4905264;28;114936;-68
2024/03/11 10:24:15;;;;;;;16.88;8.38;;;;;;;12.17;57.58;100005.81;4904917;28;124717;-68
2024/03/11 10:26:45;;;;;;;16.42;7.57;;;;;;;12.19;57.71;100006.53;4904679;28;123959;-69
2024/03/11 10:29:29;;;;;;;13.70;8.00;;;;;;;12.19;57.63;100006.53;4910977;28;113509;-68
2024/03/11 10:31:57;;;;;;;15.07;8.38;;;;;;;12.21;57.42;100009.94;4908801;28;114069;-68
2024/03/11 10:34:24;;;;;;;15.55;8.02;;;;;;;12.22;57.60;100011.66;4908385;28;122949;-69
2024/03/11 10:36:57;;;;;;;15.85;8.38;;;;;;;12.24;57.78;100004.44;4911939;28;123764;-68
2024/03/11 10:39:37;;;;;;;13.88;7.82;;;;;;;12.25;57.58;100006.13;4904883;28;114381;-68
2024/03/11 10:42:12;;;;;;;15.70;8.50;;;;;;;12.29;57.46;100016.56;4905099;28;115020;-69
2024/03/11 10:44:40;;;;;;;18.08;9.02;;;;;;;12.31;57.58;100014.66;4906205;28;124327;-68
2024/03/11 10:47:14;;;;;;;17.35;8.88;;;;;;;12.31;57.58;100009.34;4904111;28;124290;-68
2024/03/11 10:49:51;;;;;;;18.00;8.85;;;;;;;12.33;57.64;100018.06;4910633;28;114263;-68
2024/03/11 10:52:21;;;;;;;18.65;9.07;;;;;;;12.34;57.72;100019.75;4909486;28;113974;-68
2024/03/11 10:54:51;;;;;;;19.17;9.35;;;;;;;12.35;57.62;100021.47;4914892;28;123437;-69
2024/03/11 10:57:39;;;;;;;20.33;9.38;;;;;;;12.37;57.46;100024.88;4918804;28;123805;-68
2024/03/11 11:02:51;;;;;;;16.65;9.48;;;;;;;12.40;57.61;100030.00;4906042;28;114810;-69
2024/03/11 11:05:24;;;;;;;17.20;9.05;;;;;;;12.41;57.72;100029.03;4903775;28;124498;-68
2024/03/11 11:07:53;;;;;;;19.13;9.05;;;;;;;12.44;57.65;100031.50;4908782;28;122292;-69
2024/03/11 11:10:29;;;;;;;15.52;8.75;;;;;;;12.44;57.62;100031.50;4907563;28;114590;-69
2024/03/11 11:13:01;;;;;;;17.17;9.60;;;;;;;12.46;57.68;100034.88;4909420;28;114390;-69
2024/03/11 11:15:29;;;;;;;18.30;8.77;;;;;;;12.48;57.78;100035.63;4903320;28;124022;-68
2024/03/11 11:17:59;;;;;;;18.08;8.55;;;;;;;12.49;57.73;100034.69;4906654;28;123916;-68
2024/03/11 11:21:00;;;;;;;17.58;9.02;;;;;;;12.50;57.64;100039.03;4907365;28;114319;-68
2024/03/11 11:23:27;;;;;;;16.27;8.80;;;;;;;12.50;57.62;100036.38;4906160;28;113339;-68